createdAt,value
2023-01-17T00:02:27.698Z,41.90
2023-01-17T00:05:59.063Z,40.50
2023-01-17T00:09:41.464Z,37.70
2023-01-17T00:13:33.474Z,38.00
2023-01-17T00:23:39.372Z,41.70
2023-01-17T00:27:32.558Z,38.00
2023-01-17T00:31:41.991Z,37.20
2023-01-17T00:35:51.045Z,36.90
2023-01-17T00:40:00.100Z,40.30
2023-01-17T00:44:27.532Z,39.10
2023-01-17T00:48:54.907Z,39.50
2023-01-17T00:53:09.952Z,39.40
2023-01-17T00:57:38.001Z,38.30
2023-01-17T01:01:46.938Z,35.40
2023-01-17T01:05:38.432Z,36.00
2023-01-17T01:10:05.491Z,37.30
2023-01-17T01:14:33.456Z,38.80
2023-01-17T01:18:47.724Z,35.30
2023-01-17T01:23:03.119Z,37.20
2023-01-17T01:27:10.458Z,36.00
2023-01-17T01:31:40.843Z,34.80
2023-01-17T01:36:10.101Z,34.30
2023-01-17T01:40:35.383Z,37.90
2023-01-17T01:45:22.785Z,36.70
2023-01-17T01:49:37.143Z,35.70
2023-01-17T01:54:06.405Z,37.20
2023-01-17T01:58:36.068Z,35.90
2023-01-17T02:03:05.982Z,37.60
2023-01-17T02:07:43.910Z,38.70
2023-01-17T02:12:13.026Z,37.50
2023-01-17T02:16:44.772Z,39.00
2023-01-17T02:21:29.247Z,37.60
2023-01-17T02:26:04.315Z,36.70
2023-01-17T02:30:27.444Z,38.50
2023-01-17T02:35:05.365Z,40.80
2023-01-17T02:39:17.800Z,36.30
2023-01-17T02:43:49.717Z,40.20
2023-01-17T02:48:22.161Z,41.70
2023-01-17T02:52:41.340Z,39.70
2023-01-17T02:57:13.000Z,44.40
2023-01-17T03:01:43.703Z,47.90
2023-01-17T03:06:21.687Z,42.20
2023-01-17T03:10:51.400Z,43.70
2023-01-17T03:15:20.897Z,45.40
2023-01-17T03:19:17.184Z,44.30
2023-01-17T03:23:26.762Z,42.20
2023-01-17T03:27:56.011Z,45.20
2023-01-17T03:32:05.601Z,45.70
2023-01-17T03:36:34.846Z,46.90
2023-01-17T03:40:46.574Z,43.50
2023-01-17T03:45:15.486Z,40.50
2023-01-17T03:49:46.101Z,42.10
2023-01-17T03:53:55.099Z,44.50
2023-01-17T03:58:06.375Z,40.70
2023-01-17T04:02:35.861Z,40.30
2023-01-17T04:07:04.960Z,39.30
2023-01-17T04:11:15.394Z,37.80
2023-01-17T04:15:45.056Z,38.70
2023-01-17T04:20:14.412Z,38.40
2023-01-17T04:24:23.657Z,38.50
2023-01-17T04:28:55.308Z,37.60
2023-01-17T04:33:12.559Z,36.50
2023-01-17T04:37:41.657Z,30.90
2023-01-17T04:42:11.114Z,34.80
2023-01-17T04:46:22.146Z,33.20
2023-01-17T04:50:35.117Z,29.80
2023-01-17T04:54:48.214Z,29.00
2023-01-17T04:59:17.294Z,27.60
2023-01-17T05:03:46.636Z,22.80
2023-01-17T05:07:56.537Z,26.90
2023-01-17T05:11:47.567Z,24.20
2023-01-17T05:16:16.720Z,18.10
2023-01-17T05:20:46.151Z,21.30
2023-01-17T05:25:15.550Z,18.60
2023-01-17T05:29:24.488Z,17.50
2023-01-17T05:33:35.075Z,18.70
2023-01-17T05:37:44.720Z,17.40
2023-01-17T05:42:14.499Z,15.90
2023-01-17T05:46:41.792Z,15.00
2023-01-17T05:51:12.236Z,16.20
2023-01-17T05:55:29.897Z,13.70
2023-01-17T06:00:00.211Z,14.20
2023-01-17T06:04:10.176Z,16.20
2023-01-17T06:08:36.361Z,13.40
2023-01-17T06:13:06.150Z,12.30
2023-01-17T06:17:36.742Z,12.40
2023-01-17T06:22:02.454Z,12.70
2023-01-17T06:26:32.610Z,11.80
2023-01-17T06:30:53.473Z,12.00
2023-01-17T06:35:23.489Z,15.50
2023-01-17T06:50:04.592Z,15.10
2023-01-17T06:54:18.004Z,16.70
2023-01-17T06:58:48.739Z,11.10
2023-01-17T07:02:58.278Z,12.50
2023-01-17T07:07:08.151Z,13.90
2023-01-17T07:11:40.170Z,12.90
2023-01-17T07:16:09.835Z,8.00
2023-01-17T07:20:39.484Z,7.80
2023-01-17T07:25:08.648Z,7.40
2023-01-17T07:29:39.126Z,7.10
2023-01-17T07:34:09.818Z,8.50
2023-01-17T07:38:40.247Z,8.70
2023-01-17T07:42:50.580Z,9.30
2023-01-17T07:47:19.854Z,9.80
2023-01-17T07:51:31.415Z,10.70
2023-01-17T07:55:41.578Z,10.40
2023-01-17T07:59:51.895Z,9.70
2023-01-17T08:04:16.337Z,10.90
2023-01-17T08:08:46.042Z,9.90
2023-01-17T08:13:15.215Z,9.20
2023-01-17T08:17:46.946Z,9.30
2023-01-17T08:22:16.454Z,8.80
2023-01-17T08:26:45.740Z,8.50
2023-01-17T08:31:15.204Z,10.30
2023-01-17T08:35:43.990Z,9.70
2023-01-17T08:40:12.996Z,7.60
2023-01-17T08:44:42.231Z,8.70
2023-01-17T08:49:07.864Z,7.20
2023-01-17T08:53:39.567Z,7.20
2023-01-17T08:58:08.472Z,5.80
2023-01-17T09:02:37.813Z,6.60
2023-01-17T09:07:07.150Z,6.20
2023-01-17T09:11:36.341Z,7.00
2023-01-17T09:16:05.456Z,5.90
2023-01-17T09:22:24.253Z,6.30
2023-01-17T09:25:43.154Z,6.20
2023-01-17T09:29:26.044Z,7.30
2023-01-17T09:33:02.936Z,8.40
2023-01-17T09:36:52.611Z,6.30
2023-01-17T09:40:31.432Z,7.30
2023-01-17T09:44:21.029Z,5.90
2023-01-17T09:48:17.007Z,6.50
2023-01-17T09:52:09.751Z,5.20
2023-01-17T09:55:48.709Z,5.10
2023-01-17T10:00:02.356Z,5.20
2023-01-17T10:04:10.605Z,6.20
2023-01-17T10:08:12.034Z,7.20
2023-01-17T10:12:12.930Z,6.10
2023-01-17T10:16:04.971Z,8.50
2023-01-17T10:20:02.957Z,6.60
2023-01-17T10:24:13.655Z,7.20
2023-01-17T10:28:02.826Z,7.50
2023-01-17T10:31:51.975Z,8.20
2023-01-17T10:35:45.881Z,8.20
2023-01-17T10:39:35.226Z,8.30
2023-01-17T10:43:30.336Z,14.20
2023-01-17T10:47:18.078Z,10.30
2023-01-17T10:51:07.221Z,12.80
2023-01-17T10:55:14.393Z,13.60
2023-01-17T10:59:04.707Z,11.10
2023-01-17T11:02:48.336Z,6.90
2023-01-17T11:06:58.311Z,6.70
2023-01-17T11:10:47.977Z,4.60
2023-01-17T11:14:37.326Z,6.20
2023-01-17T11:18:27.132Z,5.90
2023-01-17T11:22:16.790Z,4.70
2023-01-17T11:26:07.580Z,6.10
2023-01-17T11:30:15.272Z,5.60
2023-01-17T11:34:07.235Z,5.70
2023-01-17T11:37:58.847Z,6.10
2023-01-17T11:41:49.012Z,6.50
2023-01-17T11:45:37.945Z,4.70
2023-01-17T11:49:27.133Z,5.50
2023-01-17T11:53:25.644Z,5.70
2023-01-17T11:57:21.196Z,6.30
2023-01-17T12:01:13.748Z,5.50
2023-01-17T12:05:10.013Z,4.50
2023-01-17T12:09:04.328Z,3.50
2023-01-17T12:12:50.304Z,4.10
2023-01-17T12:16:57.460Z,5.70
2023-01-17T12:20:48.637Z,6.90
2023-01-17T12:24:55.370Z,9.00
2023-01-17T12:29:00.213Z,7.20
2023-01-17T12:33:08.350Z,6.40
2023-01-17T12:36:56.192Z,7.90
2023-01-17T12:40:48.459Z,7.90
2023-01-17T12:44:43.457Z,5.90
2023-01-17T12:48:52.122Z,6.80
2023-01-17T12:52:45.420Z,3.30
2023-01-17T12:56:48.879Z,3.90
2023-01-17T13:00:51.105Z,4.50
2023-01-17T13:04:59.168Z,4.40
2023-01-17T13:08:59.361Z,2.80
2023-01-17T13:12:53.299Z,4.80
2023-01-17T13:16:43.106Z,3.20
2023-01-17T13:20:51.631Z,5.40
2023-01-17T13:25:08.037Z,4.40
2023-01-17T13:29:23.894Z,5.40
2023-01-17T13:33:21.375Z,4.70
2023-01-17T13:37:17.608Z,4.60
2023-01-17T13:41:10.129Z,2.80
2023-01-17T13:44:59.654Z,3.10
2023-01-17T13:48:55.065Z,3.90
2023-01-17T13:53:00.958Z,4.50
2023-01-17T13:57:00.584Z,4.80
2023-01-17T14:00:52.941Z,5.70
2023-01-17T14:04:51.049Z,6.20
2023-01-17T14:08:41.301Z,3.90
2023-01-17T14:12:41.510Z,2.80
2023-01-17T14:16:31.581Z,5.50
2023-01-17T14:20:25.077Z,4.90
2023-01-17T14:24:27.385Z,4.90
2023-01-17T14:28:19.379Z,6.50
2023-01-17T14:32:09.261Z,4.10
2023-01-17T14:36:22.650Z,3.30
2023-01-17T14:40:25.249Z,3.80
2023-01-17T14:44:14.656Z,5.80
2023-01-17T14:48:09.212Z,3.80
2023-01-17T14:52:20.297Z,6.60
2023-01-17T14:56:19.984Z,6.60
2023-01-17T15:00:00.953Z,8.40
2023-01-17T15:03:54.356Z,7.30
2023-01-17T15:07:48.903Z,8.50
2023-01-17T15:11:40.123Z,7.20
2023-01-17T15:15:30.254Z,7.70
2023-01-17T15:19:37.447Z,9.80
2023-01-17T15:23:27.931Z,11.30
2023-01-17T15:27:18.029Z,14.00
2023-01-17T15:31:08.921Z,14.40
2023-01-17T15:34:58.016Z,14.00
2023-01-17T15:38:48.905Z,13.30
2023-01-17T15:42:40.698Z,12.80
2023-01-17T15:46:34.282Z,14.20
2023-01-17T15:50:25.730Z,14.50
2023-01-17T15:54:15.707Z,17.00
2023-01-17T15:58:10.263Z,15.20
2023-01-17T16:01:56.758Z,12.80
2023-01-17T16:06:04.795Z,17.60
2023-01-17T16:10:01.843Z,13.20
2023-01-17T16:13:51.217Z,15.10
2023-01-17T16:17:41.085Z,14.10
2023-01-17T16:21:20.404Z,12.00
2023-01-17T16:25:10.640Z,11.20
2023-01-17T16:28:45.436Z,11.60
2023-01-17T16:32:36.452Z,13.10
2023-01-17T16:36:26.365Z,14.40
2023-01-17T16:40:16.420Z,17.30
2023-01-17T16:44:06.639Z,15.40
2023-01-17T16:47:54.910Z,16.20
2023-01-17T16:51:39.875Z,18.00
2023-01-17T16:55:29.120Z,22.40
2023-01-17T16:59:04.496Z,28.10
2023-01-17T17:02:55.977Z,28.50
2023-01-17T17:06:47.355Z,30.60
2023-01-17T17:10:26.710Z,28.90
2023-01-17T17:14:08.294Z,40.60
2023-01-17T17:17:57.716Z,94.60
2023-01-17T17:21:46.914Z,114.00
2023-01-17T17:25:04.479Z,81.70
2023-01-17T17:28:54.076Z,71.20
2023-01-17T17:32:43.576Z,73.60
2023-01-17T17:36:19.602Z,122.00
2023-01-17T17:40:09.066Z,98.90
2023-01-17T17:43:51.515Z,102.80
2023-01-17T17:47:04.655Z,84.40
2023-01-17T17:50:46.554Z,69.60
2023-01-17T17:54:31.280Z,75.60
2023-01-17T17:58:04.395Z,45.30
2023-01-17T18:01:53.904Z,46.40
2023-01-17T18:05:43.831Z,49.60
2023-01-17T18:09:31.822Z,61.60
2023-01-17T18:13:04.246Z,68.80
2023-01-17T18:16:53.643Z,91.10
2023-01-17T18:20:15.048Z,94.30
2023-01-17T18:23:57.983Z,75.20
2023-01-17T18:27:32.729Z,93.50
2023-01-17T18:31:01.192Z,84.40
2023-01-17T18:34:50.961Z,84.60
2023-01-17T18:38:40.919Z,163.20
2023-01-17T18:42:23.237Z,89.70
2023-01-17T18:46:17.663Z,139.40
2023-01-17T18:50:07.964Z,223.20
2023-01-17T18:53:54.357Z,260.70
2023-01-17T18:57:24.336Z,178.00
2023-01-17T19:01:15.358Z,151.30
2023-01-17T19:05:05.858Z,185.00
2023-01-17T19:08:16.100Z,192.60
2023-01-17T19:11:58.206Z,130.40
2023-01-17T19:15:29.227Z,138.90
2023-01-17T19:18:59.820Z,160.10
2023-01-17T19:22:49.665Z,217.90
2023-01-17T19:26:27.657Z,278.30
2023-01-17T19:30:22.899Z,252.50
2023-01-17T19:45:15.824Z,260.00
2023-01-17T19:49:46.533Z,236.00
2023-01-17T19:54:16.426Z,246.60
2023-01-17T19:58:46.711Z,265.70
2023-01-17T20:03:16.395Z,240.70
2023-01-17T20:07:46.845Z,285.30
2023-01-17T20:12:17.625Z,273.10
2023-01-17T20:16:52.427Z,327.40
2023-01-17T20:21:25.819Z,362.20
2023-01-17T20:26:05.435Z,380.30
2023-01-17T20:30:46.689Z,336.30
2023-01-17T20:35:25.435Z,391.10
2023-01-17T20:40:02.642Z,434.80
2023-01-17T20:44:36.866Z,440.80
2023-01-17T20:49:09.305Z,506.90
2023-01-17T20:53:40.033Z,469.00
2023-01-17T20:58:09.754Z,496.50
2023-01-17T21:02:39.557Z,484.50
2023-01-17T21:07:09.421Z,433.80
2023-01-17T21:11:39.973Z,399.30
2023-01-17T21:16:10.419Z,339.20
2023-01-17T21:20:40.745Z,368.90
2023-01-17T21:25:11.612Z,381.90
2023-01-17T21:29:41.884Z,320.30
2023-01-17T21:34:11.485Z,271.40
2023-01-17T21:38:42.360Z,294.40
2023-01-17T21:43:12.497Z,279.90
2023-01-17T21:47:42.182Z,204.30
2023-01-17T21:52:16.578Z,261.40
2023-01-17T21:56:44.709Z,232.30
2023-01-17T22:01:14.609Z,183.20
2023-01-17T22:05:44.329Z,189.70
2023-01-17T22:10:13.318Z,183.40
2023-01-17T22:14:42.890Z,167.20
2023-01-17T22:19:12.106Z,157.40
2023-01-17T22:23:41.936Z,156.90
2023-01-17T22:28:11.114Z,174.40
2023-01-17T22:32:40.368Z,160.70
2023-01-17T22:37:10.297Z,149.10
2023-01-17T22:41:45.682Z,174.90
2023-01-17T22:46:15.040Z,185.70
2023-01-17T22:50:44.305Z,245.10
2023-01-17T22:55:13.838Z,261.50
2023-01-17T22:59:43.321Z,265.90
2023-01-17T23:04:12.830Z,310.90
2023-01-17T23:08:42.256Z,282.30
2023-01-17T23:13:11.633Z,303.50
2023-01-17T23:17:39.331Z,310.00
2023-01-17T23:22:06.666Z,312.00
2023-01-17T23:26:35.669Z,324.30
2023-01-17T23:31:07.679Z,301.00
2023-01-17T23:35:41.208Z,357.10
2023-01-17T23:40:06.752Z,366.70
2023-01-17T23:44:36.068Z,258.70
2023-01-17T23:49:05.217Z,242.90
2023-01-17T23:53:33.947Z,240.80
2023-01-17T23:58:02.911Z,287.90
